LIBD/BRI METAR and TAF weather

Enter ICAO airport designator
Station Type Date Time Source
LIBD METAR 2019/12/08 11:20 UTC NOAA

LIBD 081120Z 03004KT 9999 FEW020 16/12 Q1020


Station Type Date Time Source
LIBD Decoded METAR 2019/12/08 11:20 UTC NOAA

Bari / Palese Macchie, Italy (LIBD) 41-08N 016-47E 49M
Dec 08, 2019 - 06:20 AM EST / 2019.12.08 1120 UTC
Wind: from the NNE (030 degrees) at 5 MPH (4 KT):0
Visibility: greater than 7 mile(s):0
Sky conditions: mostly clear
Temperature: 60 F (16 C)
Dew Point: 53 F (12 C)
Relative Humidity: 77%
Pressure (altimeter): 30.12 in. Hg (1020 hPa)
ob: LIBD 081120Z 03004KT 9999 FEW020 16/12 Q1020
cycle: 11

Station Type Date Time Source
LIBD TAF 2019/12/08 12:21 UTC NOAA

TAF LIBD 081100Z 0812/0912 VRB05KT CAVOK

Example: see airport list